sensor_id;sensor_type;location;lat;lon;timestamp;pressure;altitude;pressure_sealevel;temperature;humidity
63194;BME280;49289;51.670;5.624;2022-09-20T00:01:10;102409.40;;;18.24;60.87
63194;BME280;49289;51.670;5.624;2022-09-20T00:02:56;102405.94;;;17.97;61.20
63194;BME280;49289;51.670;5.624;2022-09-20T00:04:44;102402.25;;;17.81;62.22
63194;BME280;49289;51.670;5.624;2022-09-20T00:06:32;102399.61;;;17.97;61.86
63194;BME280;49289;51.670;5.624;2022-09-20T00:08:20;102399.69;;;18.36;60.90
63194;BME280;49289;51.670;5.624;2022-09-20T00:10:07;102400.71;;;18.62;60.25
63194;BME280;49289;51.670;5.624;2022-09-20T00:11:55;102406.12;;;18.44;60.71
63194;BME280;49289;51.670;5.624;2022-09-20T00:13:44;102407.68;;;18.72;60.08
63194;BME280;49289;51.670;5.624;2022-09-20T00:15:32;102402.24;;;18.83;59.59
63194;BME280;49289;51.670;5.624;2022-09-20T00:17:19;102410.95;;;18.47;60.11
63194;BME280;49289;51.670;5.624;2022-09-20T00:19:06;102408.61;;;18.59;59.65
63194;BME280;49289;51.670;5.624;2022-09-20T00:20:56;102418.34;;;18.37;60.08
63194;BME280;49289;51.670;5.624;2022-09-20T00:22:43;102413.75;;;18.34;60.75
63194;BME280;49289;51.670;5.624;2022-09-20T00:24:30;102413.76;;;18.57;60.55
63194;BME280;49289;51.670;5.624;2022-09-20T00:26:17;102414.99;;;18.43;59.85
63194;BME280;49289;51.670;5.624;2022-09-20T00:28:04;102417.38;;;18.45;59.76
63194;BME280;49289;51.670;5.624;2022-09-20T00:29:51;102412.78;;;18.57;60.53
63194;BME280;49289;51.670;5.624;2022-09-20T00:31:38;102417.58;;;18.80;59.99
63194;BME280;49289;51.670;5.624;2022-09-20T00:33:26;102412.45;;;18.88;60.00
63194;BME280;49289;51.670;5.624;2022-09-20T00:35:13;102402.31;;;18.76;59.23
63194;BME280;49289;51.670;5.624;2022-09-20T00:37:01;102421.09;;;18.63;59.47
63194;BME280;49289;51.670;5.624;2022-09-20T00:38:49;102418.95;;;18.79;59.27
63194;BME280;49289;51.670;5.624;2022-09-20T00:40:38;102425.22;;;18.51;60.28
63194;BME280;49289;51.670;5.624;2022-09-20T00:42:26;102420.34;;;18.82;59.96
63194;BME280;49289;51.670;5.624;2022-09-20T00:46:20;102417.38;;;19.15;59.50
63194;BME280;49289;51.670;5.624;2022-09-20T00:48:09;102416.93;;;18.65;60.31
63194;BME280;49289;51.670;5.624;2022-09-20T00:49:55;102417.27;;;18.96;59.86
63194;BME280;49289;51.670;5.624;2022-09-20T00:51:43;102417.55;;;19.07;59.70
63194;BME280;49289;51.670;5.624;2022-09-20T00:53:30;102418.02;;;19.17;59.78
63194;BME280;49289;51.670;5.624;2022-09-20T00:55:18;102405.22;;;19.14;59.78
63194;BME280;49289;51.670;5.624;2022-09-20T00:57:05;102423.84;;;19.27;59.66
63194;BME280;49289;51.670;5.624;2022-09-20T00:58:55;102426.44;;;19.12;59.09
63194;BME280;49289;51.670;5.624;2022-09-20T01:00:40;102428.52;;;18.89;59.30
63194;BME280;49289;51.670;5.624;2022-09-20T01:02:27;102429.27;;;18.10;61.10
63194;BME280;49289;51.670;5.624;2022-09-20T01:04:15;102408.70;;;18.49;61.03
63194;BME280;49289;51.670;5.624;2022-09-20T01:06:05;102421.17;;;18.49;60.77
63194;BME280;49289;51.670;5.624;2022-09-20T01:07:50;102426.05;;;17.97;62.10
63194;BME280;49289;51.670;5.624;2022-09-20T01:09:39;102402.76;;;17.89;62.26
63194;BME280;49289;51.670;5.624;2022-09-20T01:11:27;102418.10;;;18.07;62.69
63194;BME280;49289;51.670;5.624;2022-09-20T01:13:15;102421.02;;;17.74;63.13
63194;BME280;49289;51.670;5.624;2022-09-20T01:15:03;102420.12;;;18.05;62.56
63194;BME280;49289;51.670;5.624;2022-09-20T01:16:50;102422.92;;;18.09;62.16
63194;BME280;49289;51.670;5.624;2022-09-20T01:18:38;102409.98;;;17.76;62.97
63194;BME280;49289;51.670;5.624;2022-09-20T01:20:28;102424.28;;;17.87;63.32
63194;BME280;49289;51.670;5.624;2022-09-20T01:22:18;102418.39;;;17.66;63.57
63194;BME280;49289;51.670;5.624;2022-09-20T01:24:05;102415.92;;;17.62;63.75
63194;BME280;49289;51.670;5.624;2022-09-20T01:26:04;102413.33;;;18.11;62.95
63194;BME280;49289;51.670;5.624;2022-09-20T01:27:53;102416.60;;;18.19;62.55
63194;BME280;49289;51.670;5.624;2022-09-20T01:29:54;102414.13;;;18.36;62.15
63194;BME280;49289;51.670;5.624;2022-09-20T01:31:41;102415.55;;;18.38;61.61
63194;BME280;49289;51.670;5.624;2022-09-20T01:33:29;102412.78;;;18.09;62.23
63194;BME280;49289;51.670;5.624;2022-09-20T01:35:16;102402.81;;;18.23;62.17
63194;BME280;49289;51.670;5.624;2022-09-20T01:37:05;102410.55;;;18.17;62.24
63194;BME280;49289;51.670;5.624;2022-09-20T01:38:53;102396.25;;;18.14;61.79
63194;BME280;49289;51.670;5.624;2022-09-20T01:40:25;102413.34;;;18.37;61.64
63194;BME280;49289;51.670;5.624;2022-09-20T01:42:11;102411.94;;;18.30;61.50
63194;BME280;49289;51.670;5.624;2022-09-20T01:44:00;102416.94;;;18.47;61.87
63194;BME280;49289;51.670;5.624;2022-09-20T01:45:33;102400.80;;;18.18;61.26
63194;BME280;49289;51.670;5.624;2022-09-20T01:47:25;102397.03;;;17.87;62.27
63194;BME280;49289;51.670;5.624;2022-09-20T01:49:15;102409.82;;;18.20;61.90
63194;BME280;49289;51.670;5.624;2022-09-20T01:53:22;102414.53;;;18.09;62.03
63194;BME280;49289;51.670;5.624;2022-09-20T01:55:18;102411.36;;;17.91;62.46
63194;BME280;49289;51.670;5.624;2022-09-20T01:57:21;102400.27;;;17.69;62.45
63194;BME280;49289;51.670;5.624;2022-09-20T02:03:44;102423.36;;;17.13;64.25
63194;BME280;49289;51.670;5.624;2022-09-20T02:06:02;102417.30;;;17.56;63.73
63194;BME280;49289;51.670;5.624;2022-09-20T02:07:59;102425.17;;;17.27;64.44
63194;BME280;49289;51.670;5.624;2022-09-20T02:10:21;102405.52;;;17.38;64.19
63194;BME280;49289;51.670;5.624;2022-09-20T02:12:15;102418.00;;;17.91;63.50
63194;BME280;49289;51.670;5.624;2022-09-20T02:14:11;102424.39;;;17.88;62.47
63194;BME280;49289;51.670;5.624;2022-09-20T02:16:15;102422.42;;;17.98;63.00
63194;BME280;49289;51.670;5.624;2022-09-20T02:18:06;102407.72;;;17.71;62.76
63194;BME280;49289;51.670;5.624;2022-09-20T02:19:59;102412.87;;;18.12;62.47
63194;BME280;49289;51.670;5.624;2022-09-20T02:21:46;102412.95;;;17.81;62.42
63194;BME280;49289;51.670;5.624;2022-09-20T02:23:40;102408.72;;;18.23;62.24
63194;BME280;49289;51.670;5.624;2022-09-20T02:25:28;102404.92;;;18.39;61.68
63194;BME280;49289;51.670;5.624;2022-09-20T02:27:20;102403.16;;;18.60;61.29
63194;BME280;49289;51.670;5.624;2022-09-20T02:29:08;102404.36;;;18.51;61.27
63194;BME280;49289;51.670;5.624;2022-09-20T02:30:58;102405.83;;;18.64;61.04
63194;BME280;49289;51.670;5.624;2022-09-20T02:32:52;102403.27;;;18.64;61.02
63194;BME280;49289;51.670;5.624;2022-09-20T02:35:00;102402.06;;;18.76;60.92
63194;BME280;49289;51.670;5.624;2022-09-20T02:36:51;102397.14;;;18.81;60.50
63194;BME280;49289;51.670;5.624;2022-09-20T02:38:48;102404.31;;;18.89;60.60
63194;BME280;49289;51.670;5.624;2022-09-20T02:40:43;102401.96;;;18.93;60.40
63194;BME280;49289;51.670;5.624;2022-09-20T02:42:29;102402.22;;;18.91;59.78
63194;BME280;49289;51.670;5.624;2022-09-20T02:44:19;102399.26;;;18.95;60.33
63194;BME280;49289;51.670;5.624;2022-09-20T02:46:07;102400.08;;;19.00;60.31
63194;BME280;49289;51.670;5.624;2022-09-20T02:47:55;102395.63;;;19.03;60.00
63194;BME280;49289;51.670;5.624;2022-09-20T02:49:43;102394.91;;;19.07;59.89
63194;BME280;49289;51.670;5.624;2022-09-20T02:51:29;102396.86;;;19.02;59.71
63194;BME280;49289;51.670;5.624;2022-09-20T02:53:29;102400.91;;;19.07;59.82
63194;BME280;49289;51.670;5.624;2022-09-20T02:55:17;102406.23;;;19.07;59.57
63194;BME280;49289;51.670;5.624;2022-09-20T02:57:08;102412.87;;;18.79;59.19
63194;BME280;49289;51.670;5.624;2022-09-20T02:58:56;102409.25;;;17.94;61.67
63194;BME280;49289;51.670;5.624;2022-09-20T03:00:44;102411.78;;;18.17;60.78
63194;BME280;49289;51.670;5.624;2022-09-20T03:02:35;102411.59;;;17.68;62.70
63194;BME280;49289;51.670;5.624;2022-09-20T03:04:24;102413.28;;;18.09;61.32
63194;BME280;49289;51.670;5.624;2022-09-20T03:06:13;102399.16;;;17.24;63.28
63194;BME280;49289;51.670;5.624;2022-09-20T03:08:07;102413.34;;;17.30;63.45
63194;BME280;49289;51.670;5.624;2022-09-20T03:10:00;102414.67;;;17.58;63.16
63194;BME280;49289;51.670;5.624;2022-09-20T03:11:45;102416.66;;;17.68;62.70
63194;BME280;49289;51.670;5.624;2022-09-20T03:13:35;102410.35;;;17.61;62.01
63194;BME280;49289;51.670;5.624;2022-09-20T03:15:25;102411.94;;;17.98;61.76
63194;BME280;49289;51.670;5.624;2022-09-20T03:17:15;102411.02;;;18.11;61.27
63194;BME280;49289;51.670;5.624;2022-09-20T03:19:03;102409.22;;;18.17;61.34
63194;BME280;49289;51.670;5.624;2022-09-20T03:20:53;102392.27;;;17.91;61.03
63194;BME280;49289;51.670;5.624;2022-09-20T03:22:44;102402.14;;;17.98;61.84
63194;BME280;49289;51.670;5.624;2022-09-20T03:24:35;102406.91;;;18.31;61.20
63194;BME280;49289;51.670;5.624;2022-09-20T03:26:27;102401.36;;;17.99;61.33
63194;BME280;49289;51.670;5.624;2022-09-20T03:28:19;102405.38;;;18.09;61.39
63194;BME280;49289;51.670;5.624;2022-09-20T03:30:13;102409.87;;;18.31;60.75
63194;BME280;49289;51.670;5.624;2022-09-20T03:32:03;102402.49;;;18.31;60.69
63194;BME280;49289;51.670;5.624;2022-09-20T03:33:54;102389.68;;;18.19;60.94
63194;BME280;49289;51.670;5.624;2022-09-20T03:35:45;102406.04;;;18.52;60.58
63194;BME280;49289;51.670;5.624;2022-09-20T03:37:38;102406.20;;;18.65;60.42
63194;BME280;49289;51.670;5.624;2022-09-20T03:39:53;102407.38;;;18.73;60.37
63194;BME280;49289;51.670;5.624;2022-09-20T03:41:48;102406.78;;;18.51;59.85
63194;BME280;49289;51.670;5.624;2022-09-20T03:43:40;102410.43;;;18.49;60.35
63194;BME280;49289;51.670;5.624;2022-09-20T03:45:50;102408.39;;;18.66;60.16
63194;BME280;49289;51.670;5.624;2022-09-20T03:47:46;102405.95;;;18.78;60.16
63194;BME280;49289;51.670;5.624;2022-09-20T03:49:51;102412.39;;;18.83;60.11
63194;BME280;49289;51.670;5.624;2022-09-20T03:51:40;102411.91;;;18.90;59.86
63194;BME280;49289;51.670;5.624;2022-09-20T03:53:20;102412.97;;;18.86;59.77
63194;BME280;49289;51.670;5.624;2022-09-20T03:55:17;102414.84;;;18.85;59.88
63194;BME280;49289;51.670;5.624;2022-09-20T03:57:24;102409.33;;;18.84;59.69
63194;BME280;49289;51.670;5.624;2022-09-20T03:59:24;102409.52;;;18.90;59.61
63194;BME280;49289;51.670;5.624;2022-09-20T04:01:22;102411.19;;;18.88;59.25
63194;BME280;49289;51.670;5.624;2022-09-20T04:03:29;102411.02;;;18.76;59.55
63194;BME280;49289;51.670;5.624;2022-09-20T04:05:17;102414.23;;;18.77;59.82
63194;BME280;49289;51.670;5.624;2022-09-20T04:07:12;102414.02;;;18.82;59.91
63194;BME280;49289;51.670;5.624;2022-09-20T04:09:08;102401.55;;;18.71;59.82
63194;BME280;49289;51.670;5.624;2022-09-20T04:11:52;102412.98;;;18.69;59.72
63194;BME280;49289;51.670;5.624;2022-09-20T04:13:43;102408.82;;;18.77;59.89
63194;BME280;49289;51.670;5.624;2022-09-20T04:15:39;102410.42;;;18.75;60.01
63194;BME280;49289;51.670;5.624;2022-09-20T04:17:30;102394.80;;;18.70;59.74
63194;BME280;49289;51.670;5.624;2022-09-20T04:19:20;102411.42;;;18.70;59.88
63194;BME280;49289;51.670;5.624;2022-09-20T04:21:06;102399.09;;;18.74;59.53
63194;BME280;49289;51.670;5.624;2022-09-20T04:22:53;102410.92;;;18.67;59.55
63194;BME280;49289;51.670;5.624;2022-09-20T04:24:47;102410.31;;;18.77;59.59
63194;BME280;49289;51.670;5.624;2022-09-20T04:26:34;102412.73;;;18.74;59.54
63194;BME280;49289;51.670;5.624;2022-09-20T04:28:21;102414.56;;;18.74;59.60
63194;BME280;49289;51.670;5.624;2022-09-20T04:30:09;102412.49;;;18.75;59.67
63194;BME280;49289;51.670;5.624;2022-09-20T04:31:58;102409.56;;;18.69;59.54
63194;BME280;49289;51.670;5.624;2022-09-20T04:33:44;102407.25;;;18.69;59.89
63194;BME280;49289;51.670;5.624;2022-09-20T04:35:40;102404.85;;;18.67;59.77
63194;BME280;49289;51.670;5.624;2022-09-20T04:37:32;102398.15;;;18.63;59.68
63194;BME280;49289;51.670;5.624;2022-09-20T04:39:08;102412.45;;;18.71;59.69
63194;BME280;49289;51.670;5.624;2022-09-20T04:41:06;102411.07;;;18.74;59.75
63194;BME280;49289;51.670;5.624;2022-09-20T04:43:22;102411.53;;;18.78;59.64
63194;BME280;49289;51.670;5.624;2022-09-20T04:52:12;102415.88;;;18.71;59.34
63194;BME280;49289;51.670;5.624;2022-09-20T04:56:05;102417.56;;;18.69;59.20
63194;BME280;49289;51.670;5.624;2022-09-20T04:58:19;102414.72;;;18.74;59.08
63194;BME280;49289;51.670;5.624;2022-09-20T05:00:09;102421.25;;;18.78;59.43
63194;BME280;49289;51.670;5.624;2022-09-20T05:04:05;102425.82;;;18.85;59.06
63194;BME280;49289;51.670;5.624;2022-09-20T05:05:59;102427.23;;;18.78;59.21
63194;BME280;49289;51.670;5.624;2022-09-20T05:10:17;102428.66;;;18.76;59.31
63194;BME280;49289;51.670;5.624;2022-09-20T05:12:10;102427.73;;;18.73;59.31
63194;BME280;49289;51.670;5.624;2022-09-20T05:14:17;102415.88;;;18.66;59.24
63194;BME280;49289;51.670;5.624;2022-09-20T05:16:04;102427.97;;;18.69;59.43
63194;BME280;49289;51.670;5.624;2022-09-20T05:18:04;102429.67;;;18.76;59.39
63194;BME280;49289;51.670;5.624;2022-09-20T05:19:53;102424.28;;;18.71;59.22
63194;BME280;49289;51.670;5.624;2022-09-20T05:21:55;102417.99;;;18.61;59.21
63194;BME280;49289;51.670;5.624;2022-09-20T05:28:02;102431.11;;;18.46;59.06
63194;BME280;49289;51.670;5.624;2022-09-20T05:29:51;102435.01;;;18.41;59.30
63194;BME280;49289;51.670;5.624;2022-09-20T05:31:41;102434.20;;;18.32;59.48
63194;BME280;49289;51.670;5.624;2022-09-20T05:33:31;102421.75;;;18.21;59.65
63194;BME280;49289;51.670;5.624;2022-09-20T05:35:20;102431.70;;;18.22;59.64
63194;BME280;49289;51.670;5.624;2022-09-20T05:37:08;102437.78;;;18.23;59.67
63194;BME280;49289;51.670;5.624;2022-09-20T05:38:57;102441.96;;;18.15;59.95
63194;BME280;49289;51.670;5.624;2022-09-20T05:40:45;102430.07;;;18.05;60.02
63194;BME280;49289;51.670;5.624;2022-09-20T05:42:31;102442.12;;;18.17;60.16
63194;BME280;49289;51.670;5.624;2022-09-20T05:44:22;102446.97;;;18.15;60.27
63194;BME280;49289;51.670;5.624;2022-09-20T05:46:13;102446.23;;;18.18;60.37
63194;BME280;49289;51.670;5.624;2022-09-20T05:48:02;102451.03;;;18.10;60.68
63194;BME280;49289;51.670;5.624;2022-09-20T05:49:54;102453.33;;;18.09;60.62
63194;BME280;49289;51.670;5.624;2022-09-20T05:51:58;102457.19;;;17.71;62.02
63194;BME280;49289;51.670;5.624;2022-09-20T05:56:17;102467.41;;;17.57;62.59
63194;BME280;49289;51.670;5.624;2022-09-20T05:58:15;102464.46;;;17.79;62.11
63194;BME280;49289;51.670;5.624;2022-09-20T06:00:06;102464.45;;;17.74;62.35
63194;BME280;49289;51.670;5.624;2022-09-20T06:01:56;102469.34;;;17.36;63.40
63194;BME280;49289;51.670;5.624;2022-09-20T06:03:42;102467.75;;;17.51;62.67
63194;BME280;49289;51.670;5.624;2022-09-20T06:05:31;102466.97;;;17.24;64.03
63194;BME280;49289;51.670;5.624;2022-09-20T06:07:05;102466.58;;;17.40;63.57
63194;BME280;49289;51.670;5.624;2022-09-20T06:09:06;102469.17;;;17.41;63.23
63194;BME280;49289;51.670;5.624;2022-09-20T06:10:58;102464.97;;;17.00;64.80
63194;BME280;49289;51.670;5.624;2022-09-20T06:12:50;102465.67;;;17.44;64.12
63194;BME280;49289;51.670;5.624;2022-09-20T06:14:42;102461.89;;;17.89;62.84
63194;BME280;49289;51.670;5.624;2022-09-20T06:16:30;102475.41;;;16.96;64.87
63194;BME280;49289;51.670;5.624;2022-09-20T06:18:23;102478.73;;;16.84;65.86
63194;BME280;49289;51.670;5.624;2022-09-20T06:20:19;102480.52;;;16.89;65.21
63194;BME280;49289;51.670;5.624;2022-09-20T06:22:07;102479.23;;;17.18;65.14
63194;BME280;49289;51.670;5.624;2022-09-20T06:23:54;102478.08;;;17.49;64.21
63194;BME280;49289;51.670;5.624;2022-09-20T06:25:43;102476.69;;;17.25;64.52
63194;BME280;49289;51.670;5.624;2022-09-20T06:27:31;102480.43;;;17.11;65.29
63194;BME280;49289;51.670;5.624;2022-09-20T06:29:16;102482.43;;;17.03;65.73
63194;BME280;49289;51.670;5.624;2022-09-20T06:31:03;102482.73;;;17.04;65.88
63194;BME280;49289;51.670;5.624;2022-09-20T06:33:09;102481.47;;;17.34;64.67
63194;BME280;49289;51.670;5.624;2022-09-20T06:34:52;102464.38;;;17.70;63.53
63194;BME280;49289;51.670;5.624;2022-09-20T06:36:41;102483.47;;;17.63;63.58
63194;BME280;49289;51.670;5.624;2022-09-20T06:38:36;102479.54;;;17.75;63.29
63194;BME280;49289;51.670;5.624;2022-09-20T06:40:29;102473.47;;;17.73;63.33
63194;BME280;49289;51.670;5.624;2022-09-20T06:42:15;102480.33;;;17.74;63.48
63194;BME280;49289;51.670;5.624;2022-09-20T06:44:03;102477.84;;;17.94;63.03
63194;BME280;49289;51.670;5.624;2022-09-20T06:45:51;102476.05;;;17.61;63.88
63194;BME280;49289;51.670;5.624;2022-09-20T06:47:39;102481.77;;;17.75;63.50
63194;BME280;49289;51.670;5.624;2022-09-20T06:49:26;102478.51;;;17.77;63.17
63194;BME280;49289;51.670;5.624;2022-09-20T06:51:13;102483.15;;;17.37;64.19
63194;BME280;49289;51.670;5.624;2022-09-20T06:53:00;102480.03;;;17.36;65.00
63194;BME280;49289;51.670;5.624;2022-09-20T06:54:48;102474.39;;;17.20;64.79
63194;BME280;49289;51.670;5.624;2022-09-20T06:56:21;102484.37;;;17.60;64.30
63194;BME280;49289;51.670;5.624;2022-09-20T06:58:08;102484.08;;;17.29;64.39
63194;BME280;49289;51.670;5.624;2022-09-20T06:59:56;102487.75;;;17.25;65.17
63194;BME280;49289;51.670;5.624;2022-09-20T07:01:44;102477.33;;;17.74;63.77
63194;BME280;49289;51.670;5.624;2022-09-20T07:03:32;102491.34;;;18.06;63.00
63194;BME280;49289;51.670;5.624;2022-09-20T07:05:23;102491.16;;;17.41;64.37
63194;BME280;49289;51.670;5.624;2022-09-20T07:06:57;102490.31;;;17.73;64.07
63194;BME280;49289;51.670;5.624;2022-09-20T07:08:45;102483.93;;;17.83;63.55
63194;BME280;49289;51.670;5.624;2022-09-20T07:10:33;102483.80;;;18.16;62.73
63194;BME280;49289;51.670;5.624;2022-09-20T07:12:21;102487.70;;;18.52;61.94
63194;BME280;49289;51.670;5.624;2022-09-20T07:14:09;102484.41;;;18.21;62.51
63194;BME280;49289;51.670;5.624;2022-09-20T07:16:04;102487.79;;;18.14;63.25
63194;BME280;49289;51.670;5.624;2022-09-20T07:17:52;102496.52;;;17.74;63.91
63194;BME280;49289;51.670;5.624;2022-09-20T07:19:40;102494.11;;;17.70;64.61
63194;BME280;49289;51.670;5.624;2022-09-20T07:21:27;102480.13;;;17.51;64.66
63194;BME280;49289;51.670;5.624;2022-09-20T07:23:15;102498.92;;;17.68;65.16
63194;BME280;49289;51.670;5.624;2022-09-20T07:25:03;102497.38;;;17.73;64.95
63194;BME280;49289;51.670;5.624;2022-09-20T07:26:59;102498.63;;;16.82;67.15
63194;BME280;49289;51.670;5.624;2022-09-20T07:28:45;102499.83;;;16.73;68.08
63194;BME280;49289;51.670;5.624;2022-09-20T07:30:19;102500.59;;;17.64;65.41
63194;BME280;49289;51.670;5.624;2022-09-20T07:32:07;102500.05;;;18.08;63.93
63194;BME280;49289;51.670;5.624;2022-09-20T07:33:54;102501.27;;;18.30;63.45
63194;BME280;49289;51.670;5.624;2022-09-20T07:35:41;102502.25;;;18.60;62.55
63194;BME280;49289;51.670;5.624;2022-09-20T07:37:28;102508.84;;;18.37;62.87
63194;BME280;49289;51.670;5.624;2022-09-20T07:39:15;102506.55;;;18.04;63.46
63194;BME280;49289;51.670;5.624;2022-09-20T07:41:06;102510.05;;;17.89;63.89
63194;BME280;49289;51.670;5.624;2022-09-20T07:42:54;102507.52;;;17.62;64.24
63194;BME280;49289;51.670;5.624;2022-09-20T07:44:26;102512.14;;;17.29;65.51
63194;BME280;49289;51.670;5.624;2022-09-20T07:46:14;102513.02;;;17.29;65.64
63194;BME280;49289;51.670;5.624;2022-09-20T07:48:03;102505.60;;;18.01;63.38
63194;BME280;49289;51.670;5.624;2022-09-20T07:49:51;102493.05;;;18.19;62.81
63194;BME280;49289;51.670;5.624;2022-09-20T07:51:24;102507.01;;;18.50;61.66
63194;BME280;49289;51.670;5.624;2022-09-20T07:53:10;102506.10;;;18.35;61.88
63194;BME280;49289;51.670;5.624;2022-09-20T07:54:42;102510.75;;;18.05;62.88
63194;BME280;49289;51.670;5.624;2022-09-20T07:56:15;102511.43;;;18.62;61.49
63194;BME280;49289;51.670;5.624;2022-09-20T07:58:03;102511.30;;;18.57;61.17
63194;BME280;49289;51.670;5.624;2022-09-20T07:59:51;102497.91;;;18.77;60.68
63194;BME280;49289;51.670;5.624;2022-09-20T08:01:24;102495.64;;;18.53;60.61
63194;BME280;49289;51.670;5.624;2022-09-20T08:03:12;102518.45;;;18.91;60.18
63194;BME280;49289;51.670;5.624;2022-09-20T08:04:59;102519.34;;;18.61;59.34
63194;BME280;49289;51.670;5.624;2022-09-20T08:06:47;102521.01;;;18.72;59.75
63194;BME280;49289;51.670;5.624;2022-09-20T08:08:37;102517.97;;;19.26;58.47
63194;BME280;49289;51.670;5.624;2022-09-20T08:10:09;102510.62;;;19.05;58.67
63194;BME280;49289;51.670;5.624;2022-09-20T08:11:56;102501.70;;;19.18;58.23
63194;BME280;49289;51.670;5.624;2022-09-20T08:13:44;102516.80;;;19.89;57.38
63194;BME280;49289;51.670;5.624;2022-09-20T08:15:32;102518.59;;;19.51;56.97
63194;BME280;49289;51.670;5.624;2022-09-20T08:17:19;102519.48;;;19.07;56.81
63194;BME280;49289;51.670;5.624;2022-09-20T08:19:06;102516.23;;;18.66;58.75
63194;BME280;49289;51.670;5.624;2022-09-20T08:20:39;102517.75;;;18.79;58.48
63194;BME280;49289;51.670;5.624;2022-09-20T08:22:12;102517.34;;;19.28;57.28
63194;BME280;49289;51.670;5.624;2022-09-20T08:24:01;102521.34;;;19.74;56.62
63194;BME280;49289;51.670;5.624;2022-09-20T08:25:48;102515.10;;;20.16;55.03
63194;BME280;49289;51.670;5.624;2022-09-20T08:27:35;102521.44;;;19.71;56.21
63194;BME280;49289;51.670;5.624;2022-09-20T08:29:22;102522.34;;;19.74;54.54
63194;BME280;49289;51.670;5.624;2022-09-20T08:31:13;102521.07;;;19.27;56.41
63194;BME280;49289;51.670;5.624;2022-09-20T08:32:45;102503.02;;;19.80;55.38
63194;BME280;49289;51.670;5.624;2022-09-20T08:34:18;102515.28;;;20.13;54.60
63194;BME280;49289;51.670;5.624;2022-09-20T08:36:08;102517.34;;;20.36;54.16
63194;BME280;49289;51.670;5.624;2022-09-20T08:37:54;102519.55;;;20.17;53.77
63194;BME280;49289;51.670;5.624;2022-09-20T08:39:41;102521.83;;;20.18;54.24
63194;BME280;49289;51.670;5.624;2022-09-20T08:41:29;102512.41;;;20.06;53.87
63194;BME280;49289;51.670;5.624;2022-09-20T08:43:16;102520.68;;;19.41;55.23
63194;BME280;49289;51.670;5.624;2022-09-20T08:45:05;102531.66;;;20.32;53.84
63194;BME280;49289;51.670;5.624;2022-09-20T08:46:38;102541.77;;;19.34;54.23
63194;BME280;49289;51.670;5.624;2022-09-20T08:48:26;102538.36;;;19.72;54.15
63194;BME280;49289;51.670;5.624;2022-09-20T08:50:14;102535.19;;;20.07;53.93
63194;BME280;49289;51.670;5.624;2022-09-20T08:52:02;102534.81;;;20.34;50.77
63194;BME280;49289;51.670;5.624;2022-09-20T08:53:52;102539.97;;;20.69;50.14
63194;BME280;49289;51.670;5.624;2022-09-20T08:55:38;102531.58;;;20.99;48.06
63194;BME280;49289;51.670;5.624;2022-09-20T08:57:13;102537.80;;;20.14;48.25
63194;BME280;49289;51.670;5.624;2022-09-20T08:59:01;102537.14;;;20.03;48.30
63194;BME280;49289;51.670;5.624;2022-09-20T09:00:48;102541.92;;;19.84;50.01
63194;BME280;49289;51.670;5.624;2022-09-20T09:02:35;102526.36;;;19.94;49.77
63194;BME280;49289;51.670;5.624;2022-09-20T09:04:23;102538.67;;;20.70;48.70
63194;BME280;49289;51.670;5.624;2022-09-20T09:06:13;102536.75;;;20.92;47.36
63194;BME280;49289;51.670;5.624;2022-09-20T09:08:04;102542.49;;;21.23;47.02
63194;BME280;49289;51.670;5.624;2022-09-20T09:09:50;102535.47;;;21.14;46.16
63194;BME280;49289;51.670;5.624;2022-09-20T09:11:39;102539.20;;;20.68;47.64
63194;BME280;49289;51.670;5.624;2022-09-20T09:13:27;102539.05;;;20.42;48.49
63194;BME280;49289;51.670;5.624;2022-09-20T09:15:20;102524.50;;;20.82;47.46
63194;BME280;49289;51.670;5.624;2022-09-20T09:17:06;102543.28;;;20.46;48.46
63194;BME280;49289;51.670;5.624;2022-09-20T09:18:53;102541.82;;;20.72;49.04
63194;BME280;49289;51.670;5.624;2022-09-20T09:20:44;102545.44;;;20.64;50.21
63194;BME280;49289;51.670;5.624;2022-09-20T09:22:38;102549.09;;;20.80;49.76
63194;BME280;49289;51.670;5.624;2022-09-20T09:24:22;102538.52;;;20.89;50.18
63194;BME280;49289;51.670;5.624;2022-09-20T09:26:12;102563.08;;;20.09;52.83
63194;BME280;49289;51.670;5.624;2022-09-20T09:27:55;102556.92;;;20.66;52.18
63194;BME280;49289;51.670;5.624;2022-09-20T09:29:42;102559.14;;;20.74;52.55
63194;BME280;49289;51.670;5.624;2022-09-20T09:31:34;102557.02;;;20.46;52.84
63194;BME280;49289;51.670;5.624;2022-09-20T09:33:29;102558.69;;;20.58;51.90
63194;BME280;49289;51.670;5.624;2022-09-20T09:35:28;102550.25;;;20.29;53.30
63194;BME280;49289;51.670;5.624;2022-09-20T09:37:23;102555.89;;;20.57;52.48
63194;BME280;49289;51.670;5.624;2022-09-20T09:39:28;102557.94;;;20.67;52.45
63194;BME280;49289;51.670;5.624;2022-09-20T09:41:27;102559.77;;;20.61;53.91
63194;BME280;49289;51.670;5.624;2022-09-20T09:43:14;102563.34;;;20.78;53.34
63194;BME280;49289;51.670;5.624;2022-09-20T09:44:59;102545.66;;;20.94;52.29
63194;BME280;49289;51.670;5.624;2022-09-20T09:46:46;102563.62;;;20.89;51.97
63194;BME280;49289;51.670;5.624;2022-09-20T09:48:24;102547.18;;;20.88;50.83
63194;BME280;49289;51.670;5.624;2022-09-20T09:50:00;102546.54;;;21.09;51.74
63194;BME280;49289;51.670;5.624;2022-09-20T09:51:58;102558.09;;;20.98;51.71
63194;BME280;49289;51.670;5.624;2022-09-20T09:53:34;102553.94;;;21.11;49.92
63194;BME280;49289;51.670;5.624;2022-09-20T09:55:08;102563.17;;;21.09;47.13
63194;BME280;49289;51.670;5.624;2022-09-20T09:57:05;102551.50;;;20.79;48.08
63194;BME280;49289;51.670;5.624;2022-09-20T09:59:02;102566.02;;;20.94;48.77
63194;BME280;49289;51.670;5.624;2022-09-20T10:00:48;102567.58;;;20.72;46.92
63194;BME280;49289;51.670;5.624;2022-09-20T10:04:21;102569.25;;;20.68;46.95